sensor_id;sensor_type;location;lat;lon;timestamp;pressure;altitude;pressure_sealevel;temperature
80246;BMP280;69558;39.208;-77.226;2024-02-16T00:00:11;99627.88;;;15.81
80246;BMP280;69558;39.208;-77.226;2024-02-16T00:02:38;99640.94;;;15.81
80246;BMP280;69558;39.208;-77.226;2024-02-16T00:05:05;99620.56;;;15.77
80246;BMP280;69558;39.208;-77.226;2024-02-16T00:07:33;99597.03;;;15.77
80246;BMP280;69558;39.208;-77.226;2024-02-16T00:10:00;99598.06;;;15.76
80246;BMP280;69558;39.208;-77.226;2024-02-16T00:12:25;99589.84;;;15.79
80246;BMP280;69558;39.208;-77.226;2024-02-16T00:14:51;99593.63;;;15.76
80246;BMP280;69558;39.208;-77.226;2024-02-16T00:17:17;99604.88;;;15.77
80246;BMP280;69558;39.208;-77.226;2024-02-16T00:19:43;99614.34;;;15.78
80246;BMP280;69558;39.208;-77.226;2024-02-16T00:22:09;99618.16;;;15.75
80246;BMP280;69558;39.208;-77.226;2024-02-16T00:24:35;99634.03;;;15.74
80246;BMP280;69558;39.208;-77.226;2024-02-16T00:27:02;99650.53;;;15.74
80246;BMP280;69558;39.208;-77.226;2024-02-16T00:29:31;99627.00;;;15.74
80246;BMP280;69558;39.208;-77.226;2024-02-16T00:31:58;99602.81;;;15.72
80246;BMP280;69558;39.208;-77.226;2024-02-16T00:34:27;99587.94;;;15.73
80246;BMP280;69558;39.208;-77.226;2024-02-16T00:36:53;99609.50;;;15.75
80246;BMP280;69558;39.208;-77.226;2024-02-16T00:39:18;99596.75;;;15.72
80246;BMP280;69558;39.208;-77.226;2024-02-16T00:41:44;99600.41;;;15.71
80246;BMP280;69558;39.208;-77.226;2024-02-16T00:44:11;99591.75;;;15.70
80246;BMP280;69558;39.208;-77.226;2024-02-16T00:46:37;99585.25;;;15.66
80246;BMP280;69558;39.208;-77.226;2024-02-16T00:49:03;99604.63;;;15.72
80246;BMP280;69558;39.208;-77.226;2024-02-16T00:51:29;99595.38;;;15.69
80246;BMP280;69558;39.208;-77.226;2024-02-16T00:53:55;99588.34;;;15.70
80246;BMP280;69558;39.208;-77.226;2024-02-16T00:56:21;99589.59;;;15.74
80246;BMP280;69558;39.208;-77.226;2024-02-16T00:58:47;99573.09;;;15.73
80246;BMP280;69558;39.208;-77.226;2024-02-16T01:01:13;99571.91;;;15.76
80246;BMP280;69558;39.208;-77.226;2024-02-16T01:03:39;99561.22;;;15.77
80246;BMP280;69558;39.208;-77.226;2024-02-16T01:06:06;99568.72;;;15.80
80246;BMP280;69558;39.208;-77.226;2024-02-16T01:08:33;99564.31;;;15.81
80246;BMP280;69558;39.208;-77.226;2024-02-16T01:10:59;99558.91;;;15.82
80246;BMP280;69558;39.208;-77.226;2024-02-16T01:13:25;99571.59;;;15.85
80246;BMP280;69558;39.208;-77.226;2024-02-16T01:15:50;99571.59;;;15.85
80246;BMP280;69558;39.208;-77.226;2024-02-16T01:18:18;99582.69;;;15.87
80246;BMP280;69558;39.208;-77.226;2024-02-16T01:20:43;99567.00;;;15.87
80246;BMP280;69558;39.208;-77.226;2024-02-16T01:23:09;99582.13;;;15.92
80246;BMP280;69558;39.208;-77.226;2024-02-16T01:25:35;99575.94;;;15.93
80246;BMP280;69558;39.208;-77.226;2024-02-16T01:28:01;99581.16;;;15.93
80246;BMP280;69558;39.208;-77.226;2024-02-16T01:30:27;99580.34;;;15.93
80246;BMP280;69558;39.208;-77.226;2024-02-16T01:32:53;99570.03;;;15.91
80246;BMP280;69558;39.208;-77.226;2024-02-16T01:35:18;99573.31;;;15.93
80246;BMP280;69558;39.208;-77.226;2024-02-16T01:37:44;99575.13;;;15.93
80246;BMP280;69558;39.208;-77.226;2024-02-16T01:40:10;99576.09;;;15.92
80246;BMP280;69558;39.208;-77.226;2024-02-16T01:42:40;99554.53;;;15.89
80246;BMP280;69558;39.208;-77.226;2024-02-16T01:45:08;99589.16;;;15.92
80246;BMP280;69558;39.208;-77.226;2024-02-16T01:47:38;99562.94;;;15.85
80246;BMP280;69558;39.208;-77.226;2024-02-16T01:50:05;99558.72;;;15.84
80246;BMP280;69558;39.208;-77.226;2024-02-16T01:52:31;99580.25;;;15.86
80246;BMP280;69558;39.208;-77.226;2024-02-16T01:54:59;99584.88;;;15.84
80246;BMP280;69558;39.208;-77.226;2024-02-16T01:57:30;99585.22;;;15.81
80246;BMP280;69558;39.208;-77.226;2024-02-16T01:59:57;99572.78;;;15.83
80246;BMP280;69558;39.208;-77.226;2024-02-16T02:02:23;99565.75;;;15.83
80246;BMP280;69558;39.208;-77.226;2024-02-16T02:04:49;99570.34;;;15.81
80246;BMP280;69558;39.208;-77.226;2024-02-16T02:07:15;99579.19;;;15.80
80246;BMP280;69558;39.208;-77.226;2024-02-16T02:09:42;99569.88;;;15.78
80246;BMP280;69558;39.208;-77.226;2024-02-16T02:12:09;99557.41;;;15.73
80246;BMP280;69558;39.208;-77.226;2024-02-16T02:14:35;99553.94;;;15.73
80246;BMP280;69558;39.208;-77.226;2024-02-16T02:17:04;99557.78;;;15.70
80246;BMP280;69558;39.208;-77.226;2024-02-16T02:19:30;99549.66;;;15.65
80246;BMP280;69558;39.208;-77.226;2024-02-16T02:21:56;99564.41;;;15.73
80246;BMP280;69558;39.208;-77.226;2024-02-16T02:24:22;99554.16;;;15.71
80246;BMP280;69558;39.208;-77.226;2024-02-16T02:26:48;99561.78;;;15.73
80246;BMP280;69558;39.208;-77.226;2024-02-16T02:29:14;99561.78;;;15.73
80246;BMP280;69558;39.208;-77.226;2024-02-16T02:31:39;99565.41;;;15.72
80246;BMP280;69558;39.208;-77.226;2024-02-16T02:34:06;99567.22;;;15.71
80246;BMP280;69558;39.208;-77.226;2024-02-16T02:36:32;99563.00;;;15.70
80246;BMP280;69558;39.208;-77.226;2024-02-16T02:38:58;99544.91;;;15.54
80246;BMP280;69558;39.208;-77.226;2024-02-16T02:41:24;99564.97;;;15.68
80246;BMP280;69558;39.208;-77.226;2024-02-16T02:43:51;99556.31;;;15.68
80246;BMP280;69558;39.208;-77.226;2024-02-16T02:46:17;99556.97;;;15.70
80246;BMP280;69558;39.208;-77.226;2024-02-16T02:48:44;99567.56;;;15.68
80246;BMP280;69558;39.208;-77.226;2024-02-16T02:51:10;99555.72;;;15.66
80246;BMP280;69558;39.208;-77.226;2024-02-16T02:53:36;99565.78;;;15.69
80246;BMP280;69558;39.208;-77.226;2024-02-16T02:56:03;99561.72;;;15.66
80246;BMP280;69558;39.208;-77.226;2024-02-16T02:58:29;99550.47;;;15.66
80246;BMP280;69558;39.208;-77.226;2024-02-16T03:00:55;99542.63;;;15.66
80246;BMP280;69558;39.208;-77.226;2024-02-16T03:03:22;99547.06;;;15.65
80246;BMP280;69558;39.208;-77.226;2024-02-16T03:05:48;99553.44;;;15.63
80246;BMP280;69558;39.208;-77.226;2024-02-16T03:08:14;99556.06;;;15.63
80246;BMP280;69558;39.208;-77.226;2024-02-16T03:10:40;99552.47;;;15.64
80246;BMP280;69558;39.208;-77.226;2024-02-16T03:13:06;99548.06;;;15.64
80246;BMP280;69558;39.208;-77.226;2024-02-16T03:15:35;99537.13;;;15.61
80246;BMP280;69558;39.208;-77.226;2024-02-16T03:18:01;99536.13;;;15.62
80246;BMP280;69558;39.208;-77.226;2024-02-16T03:20:28;99534.31;;;15.62
80246;BMP280;69558;39.208;-77.226;2024-02-16T03:22:55;99535.56;;;15.66
80246;BMP280;69558;39.208;-77.226;2024-02-16T03:25:21;99537.19;;;15.67
80246;BMP280;69558;39.208;-77.226;2024-02-16T03:27:49;99528.53;;;15.67
80246;BMP280;69558;39.208;-77.226;2024-02-16T03:30:15;99531.41;;;15.72
80246;BMP280;69558;39.208;-77.226;2024-02-16T03:32:41;99531.06;;;15.75
80246;BMP280;69558;39.208;-77.226;2024-02-16T03:35:07;99537.69;;;15.77
80246;BMP280;69558;39.208;-77.226;2024-02-16T03:37:33;99532.69;;;15.76
80246;BMP280;69558;39.208;-77.226;2024-02-16T03:39:59;99520.94;;;15.72
80246;BMP280;69558;39.208;-77.226;2024-02-16T03:42:24;99536.97;;;15.83
80246;BMP280;69558;39.208;-77.226;2024-02-16T03:44:50;99539.22;;;15.86
80246;BMP280;69558;39.208;-77.226;2024-02-16T03:47:16;99549.50;;;15.88
80246;BMP280;69558;39.208;-77.226;2024-02-16T03:49:42;99548.88;;;15.86
80246;BMP280;69558;39.208;-77.226;2024-02-16T03:52:08;99537.41;;;15.87
80246;BMP280;69558;39.208;-77.226;2024-02-16T03:54:34;99537.22;;;15.88
80246;BMP280;69558;39.208;-77.226;2024-02-16T03:56:59;99536.44;;;15.88
80246;BMP280;69558;39.208;-77.226;2024-02-16T03:59:25;99531.38;;;15.86
80246;BMP280;69558;39.208;-77.226;2024-02-16T04:01:51;99536.00;;;15.84
80246;BMP280;69558;39.208;-77.226;2024-02-16T04:04:18;99529.75;;;15.85
80246;BMP280;69558;39.208;-77.226;2024-02-16T04:06:44;99532.94;;;15.81
80246;BMP280;69558;39.208;-77.226;2024-02-16T04:09:09;99531.31;;;15.80
80246;BMP280;69558;39.208;-77.226;2024-02-16T04:11:35;99533.94;;;15.80
80246;BMP280;69558;39.208;-77.226;2024-02-16T04:14:01;99538.34;;;15.79
80246;BMP280;69558;39.208;-77.226;2024-02-16T04:16:28;99536.09;;;15.76
80246;BMP280;69558;39.208;-77.226;2024-02-16T04:18:54;99535.31;;;15.76
80246;BMP280;69558;39.208;-77.226;2024-02-16T04:21:20;99538.72;;;15.76
80246;BMP280;69558;39.208;-77.226;2024-02-16T04:23:46;99536.47;;;15.73
80246;BMP280;69558;39.208;-77.226;2024-02-16T04:26:12;99541.88;;;15.72
80246;BMP280;69558;39.208;-77.226;2024-02-16T04:28:39;99547.91;;;15.72
80246;BMP280;69558;39.208;-77.226;2024-02-16T04:31:05;99548.94;;;15.71
80246;BMP280;69558;39.208;-77.226;2024-02-16T04:33:31;99536.13;;;15.62
80246;BMP280;69558;39.208;-77.226;2024-02-16T04:35:57;99551.72;;;15.70
80246;BMP280;69558;39.208;-77.226;2024-02-16T04:38:22;99561.38;;;15.69
80246;BMP280;69558;39.208;-77.226;2024-02-16T04:40:48;99558.91;;;15.68
80246;BMP280;69558;39.208;-77.226;2024-02-16T04:43:14;99562.34;;;15.68
80246;BMP280;69558;39.208;-77.226;2024-02-16T04:45:40;99565.13;;;15.67
80246;BMP280;69558;39.208;-77.226;2024-02-16T04:48:06;99573.78;;;15.67
80246;BMP280;69558;39.208;-77.226;2024-02-16T04:50:33;99570.31;;;15.60
80246;BMP280;69558;39.208;-77.226;2024-02-16T04:53:00;99576.81;;;15.64
80246;BMP280;69558;39.208;-77.226;2024-02-16T04:55:28;99576.97;;;15.63
80246;BMP280;69558;39.208;-77.226;2024-02-16T04:57:55;99571.56;;;15.64
80246;BMP280;69558;39.208;-77.226;2024-02-16T05:00:22;99583.00;;;15.63
80246;BMP280;69558;39.208;-77.226;2024-02-16T05:02:48;99586.78;;;15.61
80246;BMP280;69558;39.208;-77.226;2024-02-16T05:05:14;99590.03;;;15.63
80246;BMP280;69558;39.208;-77.226;2024-02-16T05:07:42;99580.13;;;15.58
80246;BMP280;69558;39.208;-77.226;2024-02-16T05:10:08;99602.84;;;15.57
80246;BMP280;69558;39.208;-77.226;2024-02-16T05:12:34;99606.13;;;15.60
80246;BMP280;69558;39.208;-77.226;2024-02-16T05:15:01;99603.09;;;15.63
80246;BMP280;69558;39.208;-77.226;2024-02-16T05:17:26;99614.56;;;15.62
80246;BMP280;69558;39.208;-77.226;2024-02-16T05:19:52;99609.97;;;15.64
80246;BMP280;69558;39.208;-77.226;2024-02-16T05:22:19;99611.19;;;15.68
80246;BMP280;69558;39.208;-77.226;2024-02-16T05:24:47;99621.25;;;15.64
80246;BMP280;69558;39.208;-77.226;2024-02-16T05:27:13;99627.53;;;15.70
80246;BMP280;69558;39.208;-77.226;2024-02-16T05:29:40;99628.00;;;15.73
80246;BMP280;69558;39.208;-77.226;2024-02-16T05:32:06;99620.97;;;15.74
80246;BMP280;69558;39.208;-77.226;2024-02-16T05:34:33;99631.00;;;15.77
80246;BMP280;69558;39.208;-77.226;2024-02-16T05:37:06;99634.91;;;15.81
80246;BMP280;69558;39.208;-77.226;2024-02-16T05:39:35;99647.34;;;15.79
80246;BMP280;69558;39.208;-77.226;2024-02-16T05:42:08;99643.75;;;15.80
80246;BMP280;69558;39.208;-77.226;2024-02-16T05:44:34;99645.44;;;15.73
80246;BMP280;69558;39.208;-77.226;2024-02-16T05:47:00;99653.56;;;15.78
80246;BMP280;69558;39.208;-77.226;2024-02-16T05:49:26;99655.22;;;15.79
80246;BMP280;69558;39.208;-77.226;2024-02-16T05:51:51;99661.41;;;15.78
80246;BMP280;69558;39.208;-77.226;2024-02-16T05:54:44;99666.47;;;15.79
80246;BMP280;69558;39.208;-77.226;2024-02-16T05:57:10;99667.22;;;15.73
80246;BMP280;69558;39.208;-77.226;2024-02-16T05:59:36;99677.81;;;15.72
80246;BMP280;69558;39.208;-77.226;2024-02-16T06:02:04;99678.03;;;15.70
80246;BMP280;69558;39.208;-77.226;2024-02-16T06:04:30;99670.72;;;15.66
80246;BMP280;69558;39.208;-77.226;2024-02-16T06:06:56;99686.88;;;15.69
80246;BMP280;69558;39.208;-77.226;2024-02-16T06:09:22;99683.44;;;15.69
80246;BMP280;69558;39.208;-77.226;2024-02-16T06:11:47;99684.41;;;15.68
80246;BMP280;69558;39.208;-77.226;2024-02-16T06:14:14;99683.44;;;15.69
80246;BMP280;69558;39.208;-77.226;2024-02-16T06:16:40;99673.34;;;15.66
80246;BMP280;69558;39.208;-77.226;2024-02-16T06:19:08;99672.00;;;15.70
80246;BMP280;69558;39.208;-77.226;2024-02-16T06:21:35;99673.69;;;15.63
80246;BMP280;69558;39.208;-77.226;2024-02-16T06:24:01;99668.31;;;15.64
80246;BMP280;69558;39.208;-77.226;2024-02-16T06:26:26;99673.53;;;15.64
80246;BMP280;69558;39.208;-77.226;2024-02-16T06:28:52;99678.28;;;15.61
80246;BMP280;69558;39.208;-77.226;2024-02-16T06:31:18;99671.47;;;15.60
80246;BMP280;69558;39.208;-77.226;2024-02-16T06:33:44;99681.69;;;15.61
80246;BMP280;69558;39.208;-77.226;2024-02-16T06:36:10;99689.22;;;15.64
80246;BMP280;69558;39.208;-77.226;2024-02-16T06:38:37;99686.41;;;15.66
80246;BMP280;69558;39.208;-77.226;2024-02-16T06:41:03;99696.88;;;15.66
80246;BMP280;69558;39.208;-77.226;2024-02-16T06:43:29;99685.22;;;15.68
80246;BMP280;69558;39.208;-77.226;2024-02-16T06:45:55;99679.56;;;15.65
80246;BMP280;69558;39.208;-77.226;2024-02-16T06:48:22;99685.59;;;15.65
80246;BMP280;69558;39.208;-77.226;2024-02-16T06:50:48;99693.72;;;15.70
80246;BMP280;69558;39.208;-77.226;2024-02-16T06:53:14;99687.50;;;15.71
80246;BMP280;69558;39.208;-77.226;2024-02-16T06:55:40;99712.06;;;15.77
80246;BMP280;69558;39.208;-77.226;2024-02-16T06:58:06;99704.63;;;15.74
80246;BMP280;69558;39.208;-77.226;2024-02-16T07:00:32;99714.69;;;15.77
80246;BMP280;69558;39.208;-77.226;2024-02-16T07:02:58;99709.13;;;15.80
80246;BMP280;69558;39.208;-77.226;2024-02-16T07:05:24;99705.84;;;15.78
80246;BMP280;69558;39.208;-77.226;2024-02-16T07:07:50;99725.63;;;15.80
80246;BMP280;69558;39.208;-77.226;2024-02-16T07:10:16;99729.38;;;15.78
80246;BMP280;69558;39.208;-77.226;2024-02-16T07:12:42;99731.84;;;15.79
80246;BMP280;69558;39.208;-77.226;2024-02-16T07:15:08;99742.66;;;15.76
80246;BMP280;69558;39.208;-77.226;2024-02-16T07:17:34;99736.63;;;15.76
80246;BMP280;69558;39.208;-77.226;2024-02-16T07:20:01;99754.44;;;15.72
80246;BMP280;69558;39.208;-77.226;2024-02-16T07:22:30;99759.69;;;15.72
80246;BMP280;69558;39.208;-77.226;2024-02-16T07:24:56;99765.72;;;15.73
80246;BMP280;69558;39.208;-77.226;2024-02-16T07:27:22;99771.94;;;15.72
80246;BMP280;69558;39.208;-77.226;2024-02-16T07:29:47;99785.00;;;15.72
80246;BMP280;69558;39.208;-77.226;2024-02-16T07:32:13;99800.25;;;15.68
80246;BMP280;69558;39.208;-77.226;2024-02-16T07:34:39;99800.09;;;15.70
80246;BMP280;69558;39.208;-77.226;2024-02-16T07:37:05;99806.31;;;15.69
80246;BMP280;69558;39.208;-77.226;2024-02-16T07:39:31;99808.94;;;15.69
80246;BMP280;69558;39.208;-77.226;2024-02-16T07:41:56;99811.69;;;15.67
80246;BMP280;69558;39.208;-77.226;2024-02-16T07:44:22;99813.50;;;15.67
80246;BMP280;69558;39.208;-77.226;2024-02-16T07:46:48;99814.69;;;15.64
80246;BMP280;69558;39.208;-77.226;2024-02-16T07:49:16;99806.56;;;15.59
80246;BMP280;69558;39.208;-77.226;2024-02-16T07:51:41;99823.78;;;15.68
80246;BMP280;69558;39.208;-77.226;2024-02-16T07:54:07;99813.31;;;15.68
80246;BMP280;69558;39.208;-77.226;2024-02-16T07:56:33;99830.66;;;15.69
80246;BMP280;69558;39.208;-77.226;2024-02-16T07:58:59;99817.75;;;15.68
80246;BMP280;69558;39.208;-77.226;2024-02-16T08:01:25;99829.13;;;15.75
80246;BMP280;69558;39.208;-77.226;2024-02-16T08:03:51;99844.28;;;15.79
80246;BMP280;69558;39.208;-77.226;2024-02-16T08:06:18;99838.41;;;15.77
80246;BMP280;69558;39.208;-77.226;2024-02-16T08:08:49;99833.16;;;15.77
80246;BMP280;69558;39.208;-77.226;2024-02-16T08:11:15;99838.69;;;15.82
80246;BMP280;69558;39.208;-77.226;2024-02-16T08:13:41;99837.53;;;15.85
80246;BMP280;69558;39.208;-77.226;2024-02-16T08:16:06;99831.31;;;15.86
80246;BMP280;69558;39.208;-77.226;2024-02-16T08:18:33;99844.38;;;15.86
80246;BMP280;69558;39.208;-77.226;2024-02-16T08:21:00;99828.06;;;15.84
80246;BMP280;69558;39.208;-77.226;2024-02-16T08:23:26;99841.13;;;15.84
80246;BMP280;69558;39.208;-77.226;2024-02-16T08:25:51;99832.47;;;15.83
80246;BMP280;69558;39.208;-77.226;2024-02-16T08:28:17;99832.47;;;15.83
80246;BMP280;69558;39.208;-77.226;2024-02-16T08:30:43;99821.38;;;15.81
80246;BMP280;69558;39.208;-77.226;2024-02-16T08:33:10;99831.66;;;15.83
80246;BMP280;69558;39.208;-77.226;2024-02-16T08:35:36;99817.16;;;15.80
80246;BMP280;69558;39.208;-77.226;2024-02-16T08:38:03;99822.56;;;15.79
80246;BMP280;69558;39.208;-77.226;2024-02-16T08:40:29;99812.63;;;15.74
80246;BMP280;69558;39.208;-77.226;2024-02-16T08:42:55;99819.66;;;15.74
80246;BMP280;69558;39.208;-77.226;2024-02-16T08:45:21;99817.88;;;15.74
80246;BMP280;69558;39.208;-77.226;2024-02-16T08:47:47;99837.97;;;15.74
80246;BMP280;69558;39.208;-77.226;2024-02-16T08:50:12;99835.19;;;15.75
80246;BMP280;69558;39.208;-77.226;2024-02-16T08:52:38;99837.31;;;15.72
80246;BMP280;69558;39.208;-77.226;2024-02-16T08:55:05;99841.94;;;15.70
80246;BMP280;69558;39.208;-77.226;2024-02-16T08:57:33;99855.53;;;15.65
80246;BMP280;69558;39.208;-77.226;2024-02-16T08:59:59;99866.44;;;15.69
80246;BMP280;69558;39.208;-77.226;2024-02-16T09:02:25;99865.78;;;15.67
80246;BMP280;69558;39.208;-77.226;2024-02-16T09:04:51;99877.06;;;15.67
80246;BMP280;69558;39.208;-77.226;2024-02-16T09:07:17;99880.06;;;15.64
80246;BMP280;69558;39.208;-77.226;2024-02-16T09:09:42;99895.34;;;15.67
80246;BMP280;69558;39.208;-77.226;2024-02-16T09:12:09;99885.72;;;15.68
80246;BMP280;69558;39.208;-77.226;2024-02-16T09:14:35;99892.63;;;15.61
80246;BMP280;69558;39.208;-77.226;2024-02-16T09:17:00;99897.66;;;15.70
80246;BMP280;69558;39.208;-77.226;2024-02-16T09:19:26;99908.91;;;15.71
80246;BMP280;69558;39.208;-77.226;2024-02-16T09:21:52;99913.94;;;15.72
80246;BMP280;69558;39.208;-77.226;2024-02-16T09:24:20;99925.88;;;15.75
80246;BMP280;69558;39.208;-77.226;2024-02-16T09:26:46;99926.59;;;15.69
80246;BMP280;69558;39.208;-77.226;2024-02-16T09:29:13;99930.94;;;15.76
80246;BMP280;69558;39.208;-77.226;2024-02-16T09:31:42;99941.19;;;15.78
80246;BMP280;69558;39.208;-77.226;2024-02-16T09:34:08;99934.84;;;15.72
80246;BMP280;69558;39.208;-77.226;2024-02-16T09:36:34;99956.38;;;15.82
80246;BMP280;69558;39.208;-77.226;2024-02-16T09:39:03;99952.78;;;15.83
80246;BMP280;69558;39.208;-77.226;2024-02-16T09:41:31;99957.19;;;15.83
80246;BMP280;69558;39.208;-77.226;2024-02-16T09:43:58;99960.78;;;15.82
80246;BMP280;69558;39.208;-77.226;2024-02-16T09:46:24;99981.19;;;15.86
80246;BMP280;69558;39.208;-77.226;2024-02-16T09:48:53;99975.97;;;15.86
80246;BMP280;69558;39.208;-77.226;2024-02-16T09:51:20;99979.75;;;15.84
80246;BMP280;69558;39.208;-77.226;2024-02-16T09:53:50;99975.31;;;15.84
80246;BMP280;69558;39.208;-77.226;2024-02-16T09:56:20;99982.53;;;15.82
80246;BMP280;69558;39.208;-77.226;2024-02-16T09:58:46;99993.34;;;15.79
80246;BMP280;69558;39.208;-77.226;2024-02-16T10:01:18;100001.81;;;15.81
80246;BMP280;69558;39.208;-77.226;2024-02-16T10:03:49;100003.00;;;15.79
80246;BMP280;69558;39.208;-77.226;2024-02-16T10:06:16;100001.72;;;15.75
80246;BMP280;69558;39.208;-77.226;2024-02-16T10:08:49;100007.75;;;15.75
80246;BMP280;69558;39.208;-77.226;2024-02-16T10:11:17;100012.16;;;15.75
80246;BMP280;69558;39.208;-77.226;2024-02-16T10:14:04;100009.56;;;15.75
80246;BMP280;69558;39.208;-77.226;2024-02-16T10:16:31;100009.09;;;15.71
80246;BMP280;69558;39.208;-77.226;2024-02-16T10:19:04;100012.88;;;15.69
80246;BMP280;69558;39.208;-77.226;2024-02-16T10:21:31;100019.72;;;15.70
80246;BMP280;69558;39.208;-77.226;2024-02-16T10:24:08;100023.16;;;15.70
80246;BMP280;69558;39.208;-77.226;2024-02-16T10:26:35;100034.75;;;15.68
80246;BMP280;69558;39.208;-77.226;2024-02-16T10:29:06;100034.75;;;15.68
80246;BMP280;69558;39.208;-77.226;2024-02-16T10:31:33;100040.97;;;15.67
80246;BMP280;69558;39.208;-77.226;2024-02-16T10:34:03;100041.78;;;15.67
80246;BMP280;69558;39.208;-77.226;2024-02-16T10:36:36;100047.22;;;15.66
80246;BMP280;69558;39.208;-77.226;2024-02-16T10:39:04;100051.63;;;15.65
80246;BMP280;69558;39.208;-77.226;2024-02-16T10:41:33;100062.88;;;15.66
80246;BMP280;69558;39.208;-77.226;2024-02-16T10:44:01;100062.25;;;15.64
80246;BMP280;69558;39.208;-77.226;2024-02-16T10:46:27;100068.28;;;15.64
80246;BMP280;69558;39.208;-77.226;2024-02-16T10:48:53;100069.25;;;15.63
80246;BMP280;69558;39.208;-77.226;2024-02-16T10:51:25;100068.13;;;15.66
80246;BMP280;69558;39.208;-77.226;2024-02-16T10:53:55;100069.91;;;15.65
80246;BMP280;69558;39.208;-77.226;2024-02-16T10:56:39;100073.34;;;15.66
80246;BMP280;69558;39.208;-77.226;2024-02-16T10:59:08;100069.72;;;15.67
80246;BMP280;69558;39.208;-77.226;2024-02-16T11:01:42;100071.34;;;15.68
80246;BMP280;69558;39.208;-77.226;2024-02-16T11:04:10;100076.56;;;15.68
80246;BMP280;69558;39.208;-77.226;2024-02-16T11:06:52;100075.91;;;15.74
80246;BMP280;69558;39.208;-77.226;2024-02-16T11:09:30;100085.56;;;15.73
80246;BMP280;69558;39.208;-77.226;2024-02-16T11:12:00;100077.84;;;15.72
80246;BMP280;69558;39.208;-77.226;2024-02-16T11:14:44;100083.88;;;15.80
80246;BMP280;69558;39.208;-77.226;2024-02-16T11:17:11;100087.50;;;15.79
80246;BMP280;69558;39.208;-77.226;2024-02-16T11:19:44;100089.13;;;15.80
80246;BMP280;69558;39.208;-77.226;2024-02-16T11:22:11;100089.75;;;15.82
80246;BMP280;69558;39.208;-77.226;2024-02-16T11:24:43;100071.28;;;15.84
80246;BMP280;69558;39.208;-77.226;2024-02-16T11:27:10;100077.50;;;15.83
80246;BMP280;69558;39.208;-77.226;2024-02-16T11:29:37;100074.06;;;15.82
80246;BMP280;69558;39.208;-77.226;2024-02-16T11:32:07;100081.75;;;15.84
80246;BMP280;69558;39.208;-77.226;2024-02-16T11:34:34;100092.53;;;15.81
80246;BMP280;69558;39.208;-77.226;2024-02-16T11:37:03;100084.69;;;15.81
80246;BMP280;69558;39.208;-77.226;2024-02-16T11:39:30;100071.94;;;15.78
80246;BMP280;69558;39.208;-77.226;2024-02-16T11:42:07;100067.69;;;15.77
80246;BMP280;69558;39.208;-77.226;2024-02-16T11:44:34;100081.78;;;15.76
80246;BMP280;69558;39.208;-77.226;2024-02-16T11:47:02;100086.66;;;15.79
80246;BMP280;69558;39.208;-77.226;2024-02-16T11:49:29;100080.78;;;15.77
80246;BMP280;69558;39.208;-77.226;2024-02-16T11:51:56;100073.94;;;15.76
80246;BMP280;69558;39.208;-77.226;2024-02-16T11:54:22;100078.81;;;15.79
80246;BMP280;69558;39.208;-77.226;2024-02-16T11:56:48;100067.91;;;15.75
80246;BMP280;69558;39.208;-77.226;2024-02-16T11:59:17;100085.84;;;15.78
80246;BMP280;69558;39.208;-77.226;2024-02-16T12:01:53;100086.50;;;15.80
80246;BMP280;69558;39.208;-77.226;2024-02-16T12:04:23;100085.84;;;15.78
80246;BMP280;69558;39.208;-77.226;2024-02-16T12:07:00;100086.00;;;15.77
80246;BMP280;69558;39.208;-77.226;2024-02-16T12:09:27;100090.63;;;15.75
80246;BMP280;69558;39.208;-77.226;2024-02-16T12:11:54;100099.78;;;15.71
80246;BMP280;69558;39.208;-77.226;2024-02-16T12:14:23;100093.56;;;15.72
80246;BMP280;69558;39.208;-77.226;2024-02-16T12:19:16;100105.31;;;15.76
80246;BMP280;69558;39.208;-77.226;2024-02-16T12:21:43;100095.69;;;15.76
80246;BMP280;69558;39.208;-77.226;2024-02-16T12:24:10;100090.16;;;15.71
80246;BMP280;69558;39.208;-77.226;2024-02-16T12:26:38;100112.81;;;15.79
80246;BMP280;69558;39.208;-77.226;2024-02-16T12:29:06;100109.91;;;15.74
80246;BMP280;69558;39.208;-77.226;2024-02-16T12:31:32;100112.06;;;15.70
80246;BMP280;69558;39.208;-77.226;2024-02-16T12:34:03;100114.75;;;15.77
80246;BMP280;69558;39.208;-77.226;2024-02-16T12:36:30;100131.13;;;15.79
80246;BMP280;69558;39.208;-77.226;2024-02-16T12:38:56;100135.38;;;15.80
80246;BMP280;69558;39.208;-77.226;2024-02-16T12:41:22;100144.50;;;15.84
80246;BMP280;69558;39.208;-77.226;2024-02-16T12:43:48;100140.91;;;15.85
80246;BMP280;69558;39.208;-77.226;2024-02-16T12:46:14;100135.84;;;15.83
80246;BMP280;69558;39.208;-77.226;2024-02-16T12:48:40;100124.09;;;15.79
80246;BMP280;69558;39.208;-77.226;2024-02-16T12:51:05;100140.25;;;15.83
80246;BMP280;69558;39.208;-77.226;2024-02-16T12:53:31;100144.84;;;15.81
80246;BMP280;69558;39.208;-77.226;2024-02-16T12:56:09;100148.09;;;15.83
80246;BMP280;69558;39.208;-77.226;2024-02-16T12:58:37;100153.16;;;15.84
80246;BMP280;69558;39.208;-77.226;2024-02-16T13:01:07;100156.13;;;15.81
80246;BMP280;69558;39.208;-77.226;2024-02-16T13:03:34;100162.16;;;15.82
80246;BMP280;69558;39.208;-77.226;2024-02-16T13:06:01;100177.03;;;15.81
80246;BMP280;69558;39.208;-77.226;2024-02-16T13:08:27;100186.19;;;15.77
80246;BMP280;69558;39.208;-77.226;2024-02-16T13:10:53;100189.00;;;15.76
80246;BMP280;69558;39.208;-77.226;2024-02-16T13:13:19;100191.63;;;15.76
80246;BMP280;69558;39.208;-77.226;2024-02-16T13:15:46;100202.25;;;15.74
80246;BMP280;69558;39.208;-77.226;2024-02-16T13:18:16;100214.19;;;15.69
80246;BMP280;69558;39.208;-77.226;2024-02-16T13:20:43;100211.22;;;15.72
80246;BMP280;69558;39.208;-77.226;2024-02-16T13:23:09;100213.22;;;15.70
80246;BMP280;69558;39.208;-77.226;2024-02-16T13:25:35;100208.97;;;15.69
80246;BMP280;69558;39.208;-77.226;2024-02-16T13:28:02;100207.31;;;15.68
80246;BMP280;69558;39.208;-77.226;2024-02-16T13:30:28;100218.75;;;15.67
80246;BMP280;69558;39.208;-77.226;2024-02-16T13:32:55;100217.16;;;15.66
80246;BMP280;69558;39.208;-77.226;2024-02-16T13:35:21;100231.81;;;15.67
80246;BMP280;69558;39.208;-77.226;2024-02-16T13:37:47;100225.78;;;15.66
80246;BMP280;69558;39.208;-77.226;2024-02-16T13:40:13;100235.47;;;15.66
80246;BMP280;69558;39.208;-77.226;2024-02-16T13:42:39;100230.22;;;15.66